sensor_id;sensor_type;location;lat;lon;timestamp;temperature;humidity
69999;DHT22;57339;52.156;5.372;2023-12-20T00:01:11;7.60;93.70
69999;DHT22;57339;52.156;5.372;2023-12-20T00:03:39;7.50;93.70
69999;DHT22;57339;52.156;5.372;2023-12-20T00:06:09;7.50;93.70
69999;DHT22;57339;52.156;5.372;2023-12-20T00:08:36;7.50;93.60
69999;DHT22;57339;52.156;5.372;2023-12-20T00:11:04;7.50;93.60
69999;DHT22;57339;52.156;5.372;2023-12-20T00:13:31;7.50;93.50
69999;DHT22;57339;52.156;5.372;2023-12-20T00:15:57;7.50;93.50
69999;DHT22;57339;52.156;5.372;2023-12-20T00:18:25;7.40;93.50
69999;DHT22;57339;52.156;5.372;2023-12-20T00:20:54;7.40;93.50
69999;DHT22;57339;52.156;5.372;2023-12-20T00:23:23;7.40;93.50
69999;DHT22;57339;52.156;5.372;2023-12-20T00:25:50;7.40;93.50
69999;DHT22;57339;52.156;5.372;2023-12-20T00:28:17;7.40;93.50
69999;DHT22;57339;52.156;5.372;2023-12-20T00:30:44;7.30;93.40
69999;DHT22;57339;52.156;5.372;2023-12-20T00:33:11;7.40;93.50
69999;DHT22;57339;52.156;5.372;2023-12-20T00:35:38;7.30;93.40
69999;DHT22;57339;52.156;5.372;2023-12-20T00:38:05;7.30;93.40
69999;DHT22;57339;52.156;5.372;2023-12-20T00:40:33;7.30;93.40
69999;DHT22;57339;52.156;5.372;2023-12-20T00:43:00;7.30;93.50
69999;DHT22;57339;52.156;5.372;2023-12-20T00:45:27;7.30;93.40
69999;DHT22;57339;52.156;5.372;2023-12-20T00:47:54;7.20;93.30
69999;DHT22;57339;52.156;5.372;2023-12-20T00:50:21;7.30;93.40
69999;DHT22;57339;52.156;5.372;2023-12-20T00:52:48;7.20;93.30
69999;DHT22;57339;52.156;5.372;2023-12-20T00:55:15;7.30;93.30
69999;DHT22;57339;52.156;5.372;2023-12-20T00:57:42;7.20;93.30
69999;DHT22;57339;52.156;5.372;2023-12-20T01:00:10;7.20;93.30
69999;DHT22;57339;52.156;5.372;2023-12-20T01:02:37;7.20;93.30
69999;DHT22;57339;52.156;5.372;2023-12-20T01:05:05;7.20;93.30
69999;DHT22;57339;52.156;5.372;2023-12-20T01:07:32;7.20;93.30
69999;DHT22;57339;52.156;5.372;2023-12-20T01:09:59;7.20;93.30
69999;DHT22;57339;52.156;5.372;2023-12-20T01:12:29;7.20;93.40
69999;DHT22;57339;52.156;5.372;2023-12-20T01:14:56;7.10;93.30
69999;DHT22;57339;52.156;5.372;2023-12-20T01:17:24;7.10;93.30
69999;DHT22;57339;52.156;5.372;2023-12-20T01:19:51;7.10;93.30
69999;DHT22;57339;52.156;5.372;2023-12-20T01:22:18;7.10;93.40
69999;DHT22;57339;52.156;5.372;2023-12-20T01:24:46;7.10;93.30
69999;DHT22;57339;52.156;5.372;2023-12-20T01:27:13;7.10;93.40
69999;DHT22;57339;52.156;5.372;2023-12-20T01:29:40;7.10;93.50
69999;DHT22;57339;52.156;5.372;2023-12-20T01:32:07;7.10;93.50
69999;DHT22;57339;52.156;5.372;2023-12-20T01:34:34;7.10;93.60
69999;DHT22;57339;52.156;5.372;2023-12-20T01:37:01;7.10;93.60
69999;DHT22;57339;52.156;5.372;2023-12-20T01:39:28;7.10;93.60
69999;DHT22;57339;52.156;5.372;2023-12-20T01:41:55;7.10;93.60
69999;DHT22;57339;52.156;5.372;2023-12-20T01:44:25;7.20;93.60
69999;DHT22;57339;52.156;5.372;2023-12-20T01:46:54;7.20;93.60
69999;DHT22;57339;52.156;5.372;2023-12-20T01:49:21;7.20;93.60
69999;DHT22;57339;52.156;5.372;2023-12-20T01:51:49;7.20;93.50
69999;DHT22;57339;52.156;5.372;2023-12-20T01:54:17;7.20;93.50
69999;DHT22;57339;52.156;5.372;2023-12-20T01:56:46;7.20;93.50
69999;DHT22;57339;52.156;5.372;2023-12-20T01:59:13;7.30;93.50
69999;DHT22;57339;52.156;5.372;2023-12-20T02:01:40;7.10;93.40
69999;DHT22;57339;52.156;5.372;2023-12-20T02:04:07;7.20;93.50
69999;DHT22;57339;52.156;5.372;2023-12-20T02:06:34;7.20;93.50
69999;DHT22;57339;52.156;5.372;2023-12-20T02:09:02;7.20;93.50
69999;DHT22;57339;52.156;5.372;2023-12-20T02:11:29;7.20;93.40
69999;DHT22;57339;52.156;5.372;2023-12-20T02:13:56;7.30;93.50
69999;DHT22;57339;52.156;5.372;2023-12-20T02:16:25;7.30;93.90
69999;DHT22;57339;52.156;5.372;2023-12-20T02:18:53;7.30;93.50
69999;DHT22;57339;52.156;5.372;2023-12-20T02:21:33;7.30;93.50
69999;DHT22;57339;52.156;5.372;2023-12-20T02:24:00;7.30;93.50
69999;DHT22;57339;52.156;5.372;2023-12-20T02:26:32;7.30;93.50
69999;DHT22;57339;52.156;5.372;2023-12-20T02:29:00;7.40;93.50
69999;DHT22;57339;52.156;5.372;2023-12-20T02:31:27;7.30;93.40
69999;DHT22;57339;52.156;5.372;2023-12-20T02:33:55;7.30;93.40
69999;DHT22;57339;52.156;5.372;2023-12-20T02:36:22;7.30;93.50
69999;DHT22;57339;52.156;5.372;2023-12-20T02:38:49;7.30;93.50
69999;DHT22;57339;52.156;5.372;2023-12-20T02:41:16;7.40;93.50
69999;DHT22;57339;52.156;5.372;2023-12-20T02:43:43;7.40;93.50
69999;DHT22;57339;52.156;5.372;2023-12-20T02:46:10;7.40;93.50
69999;DHT22;57339;52.156;5.372;2023-12-20T02:48:37;7.40;93.50
69999;DHT22;57339;52.156;5.372;2023-12-20T02:51:04;7.40;93.50
69999;DHT22;57339;52.156;5.372;2023-12-20T02:53:31;7.40;93.50
69999;DHT22;57339;52.156;5.372;2023-12-20T02:56:01;7.40;93.40
69999;DHT22;57339;52.156;5.372;2023-12-20T02:58:30;7.50;93.40
69999;DHT22;57339;52.156;5.372;2023-12-20T03:01:00;7.50;93.40
69999;DHT22;57339;52.156;5.372;2023-12-20T03:03:27;7.50;93.40
69999;DHT22;57339;52.156;5.372;2023-12-20T03:05:56;7.50;93.40
69999;DHT22;57339;52.156;5.372;2023-12-20T03:08:24;7.50;93.40
69999;DHT22;57339;52.156;5.372;2023-12-20T03:10:54;7.50;93.40
69999;DHT22;57339;52.156;5.372;2023-12-20T03:13:21;7.50;93.30
69999;DHT22;57339;52.156;5.372;2023-12-20T03:15:48;7.50;93.30
69999;DHT22;57339;52.156;5.372;2023-12-20T03:18:16;7.50;93.30
69999;DHT22;57339;52.156;5.372;2023-12-20T03:20:42;7.50;93.30
69999;DHT22;57339;52.156;5.372;2023-12-20T03:23:10;7.50;93.30
69999;DHT22;57339;52.156;5.372;2023-12-20T03:25:36;7.60;93.30
69999;DHT22;57339;52.156;5.372;2023-12-20T03:28:04;7.60;93.20
69999;DHT22;57339;52.156;5.372;2023-12-20T03:30:31;7.60;93.20
69999;DHT22;57339;52.156;5.372;2023-12-20T03:33:01;7.60;93.10
69999;DHT22;57339;52.156;5.372;2023-12-20T03:35:27;7.60;93.10
69999;DHT22;57339;52.156;5.372;2023-12-20T03:37:56;7.60;93.20
69999;DHT22;57339;52.156;5.372;2023-12-20T03:40:22;7.60;93.10
69999;DHT22;57339;52.156;5.372;2023-12-20T03:42:49;7.60;93.10
69999;DHT22;57339;52.156;5.372;2023-12-20T03:45:16;7.60;93.10
69999;DHT22;57339;52.156;5.372;2023-12-20T03:47:43;7.60;93.10
69999;DHT22;57339;52.156;5.372;2023-12-20T03:50:11;7.60;93.00
69999;DHT22;57339;52.156;5.372;2023-12-20T03:52:43;7.60;92.90
69999;DHT22;57339;52.156;5.372;2023-12-20T03:55:10;7.60;92.90
69999;DHT22;57339;52.156;5.372;2023-12-20T03:57:37;7.60;92.80
69999;DHT22;57339;52.156;5.372;2023-12-20T04:00:06;7.60;92.80
69999;DHT22;57339;52.156;5.372;2023-12-20T04:02:35;7.60;92.80
69999;DHT22;57339;52.156;5.372;2023-12-20T04:05:02;7.70;92.70
69999;DHT22;57339;52.156;5.372;2023-12-20T04:07:29;7.70;92.80
69999;DHT22;57339;52.156;5.372;2023-12-20T04:09:56;7.70;92.70
69999;DHT22;57339;52.156;5.372;2023-12-20T04:12:24;7.70;92.50
69999;DHT22;57339;52.156;5.372;2023-12-20T04:14:51;7.70;92.50
69999;DHT22;57339;52.156;5.372;2023-12-20T04:17:18;7.80;92.60
69999;DHT22;57339;52.156;5.372;2023-12-20T04:19:45;7.80;92.50
69999;DHT22;57339;52.156;5.372;2023-12-20T04:22:12;7.80;92.40
69999;DHT22;57339;52.156;5.372;2023-12-20T04:24:39;7.80;92.40
69999;DHT22;57339;52.156;5.372;2023-12-20T04:27:06;7.80;92.70
69999;DHT22;57339;52.156;5.372;2023-12-20T04:29:33;7.80;92.30
69999;DHT22;57339;52.156;5.372;2023-12-20T04:32:00;7.80;92.30
69999;DHT22;57339;52.156;5.372;2023-12-20T04:34:27;7.90;92.30
69999;DHT22;57339;52.156;5.372;2023-12-20T04:36:55;7.90;92.30
69999;DHT22;57339;52.156;5.372;2023-12-20T04:39:22;7.90;92.30
69999;DHT22;57339;52.156;5.372;2023-12-20T04:41:49;7.90;92.10
69999;DHT22;57339;52.156;5.372;2023-12-20T04:44:16;8.00;92.10
69999;DHT22;57339;52.156;5.372;2023-12-20T04:46:43;8.00;92.00
69999;DHT22;57339;52.156;5.372;2023-12-20T04:49:10;8.00;92.00
69999;DHT22;57339;52.156;5.372;2023-12-20T04:51:37;8.00;91.90
69999;DHT22;57339;52.156;5.372;2023-12-20T04:54:03;8.00;91.80
69999;DHT22;57339;52.156;5.372;2023-12-20T04:56:31;8.00;91.90
69999;DHT22;57339;52.156;5.372;2023-12-20T04:58:57;8.10;91.80
69999;DHT22;57339;52.156;5.372;2023-12-20T05:01:25;8.10;91.80
69999;DHT22;57339;52.156;5.372;2023-12-20T05:03:52;8.10;91.90
69999;DHT22;57339;52.156;5.372;2023-12-20T05:06:19;8.10;91.90
69999;DHT22;57339;52.156;5.372;2023-12-20T05:08:46;8.10;91.80
69999;DHT22;57339;52.156;5.372;2023-12-20T05:11:13;8.10;91.60
69999;DHT22;57339;52.156;5.372;2023-12-20T05:13:40;8.10;91.80
69999;DHT22;57339;52.156;5.372;2023-12-20T05:16:15;8.10;91.60
69999;DHT22;57339;52.156;5.372;2023-12-20T05:18:42;8.10;91.60
69999;DHT22;57339;52.156;5.372;2023-12-20T05:21:09;8.20;91.70
69999;DHT22;57339;52.156;5.372;2023-12-20T05:23:36;8.20;91.70
69999;DHT22;57339;52.156;5.372;2023-12-20T05:26:03;8.20;91.50
69999;DHT22;57339;52.156;5.372;2023-12-20T05:28:30;8.20;91.60
69999;DHT22;57339;52.156;5.372;2023-12-20T05:30:57;8.20;91.40
69999;DHT22;57339;52.156;5.372;2023-12-20T05:33:25;8.20;91.50
69999;DHT22;57339;52.156;5.372;2023-12-20T05:35:52;8.20;91.30
69999;DHT22;57339;52.156;5.372;2023-12-20T05:38:19;8.20;91.40
69999;DHT22;57339;52.156;5.372;2023-12-20T05:40:46;8.20;91.20
69999;DHT22;57339;52.156;5.372;2023-12-20T05:43:13;8.20;91.20
69999;DHT22;57339;52.156;5.372;2023-12-20T05:45:40;8.20;91.20
69999;DHT22;57339;52.156;5.372;2023-12-20T05:48:07;8.20;91.30
69999;DHT22;57339;52.156;5.372;2023-12-20T05:50:34;8.20;91.30
69999;DHT22;57339;52.156;5.372;2023-12-20T05:53:02;8.20;91.00
69999;DHT22;57339;52.156;5.372;2023-12-20T05:55:28;8.20;91.00
69999;DHT22;57339;52.156;5.372;2023-12-20T05:57:58;8.20;90.90
69999;DHT22;57339;52.156;5.372;2023-12-20T06:00:28;8.20;90.80
69999;DHT22;57339;52.156;5.372;2023-12-20T06:02:57;8.30;91.00
69999;DHT22;57339;52.156;5.372;2023-12-20T06:05:28;8.30;90.90
69999;DHT22;57339;52.156;5.372;2023-12-20T06:07:55;8.30;91.00
69999;DHT22;57339;52.156;5.372;2023-12-20T06:10:22;8.30;90.90
69999;DHT22;57339;52.156;5.372;2023-12-20T06:12:49;8.30;90.90
69999;DHT22;57339;52.156;5.372;2023-12-20T06:15:16;8.30;90.90
69999;DHT22;57339;52.156;5.372;2023-12-20T06:17:43;8.30;91.00
69999;DHT22;57339;52.156;5.372;2023-12-20T06:20:10;8.30;90.80
69999;DHT22;57339;52.156;5.372;2023-12-20T06:22:38;8.30;90.90
69999;DHT22;57339;52.156;5.372;2023-12-20T06:25:05;8.30;90.60
69999;DHT22;57339;52.156;5.372;2023-12-20T06:27:32;8.40;90.70
69999;DHT22;57339;52.156;5.372;2023-12-20T06:30:00;8.40;90.70
69999;DHT22;57339;52.156;5.372;2023-12-20T06:32:27;8.40;90.80
69999;DHT22;57339;52.156;5.372;2023-12-20T06:34:53;8.40;90.80
69999;DHT22;57339;52.156;5.372;2023-12-20T06:37:20;8.40;90.60
69999;DHT22;57339;52.156;5.372;2023-12-20T06:39:47;8.40;90.70
69999;DHT22;57339;52.156;5.372;2023-12-20T06:42:14;8.40;90.50
69999;DHT22;57339;52.156;5.372;2023-12-20T06:44:41;8.40;90.50
69999;DHT22;57339;52.156;5.372;2023-12-20T06:47:08;8.50;90.70
69999;DHT22;57339;52.156;5.372;2023-12-20T06:49:35;8.50;90.70
69999;DHT22;57339;52.156;5.372;2023-12-20T06:52:02;8.50;90.60
69999;DHT22;57339;52.156;5.372;2023-12-20T06:54:33;8.50;90.60
69999;DHT22;57339;52.156;5.372;2023-12-20T06:57:01;8.50;90.40
69999;DHT22;57339;52.156;5.372;2023-12-20T06:59:28;8.50;90.60
69999;DHT22;57339;52.156;5.372;2023-12-20T07:01:58;8.50;90.50
69999;DHT22;57339;52.156;5.372;2023-12-20T07:04:28;8.50;90.40
69999;DHT22;57339;52.156;5.372;2023-12-20T07:06:56;8.50;90.40
69999;DHT22;57339;52.156;5.372;2023-12-20T07:09:23;8.50;90.40
69999;DHT22;57339;52.156;5.372;2023-12-20T07:11:50;8.60;90.30
69999;DHT22;57339;52.156;5.372;2023-12-20T07:14:17;8.50;90.40
69999;DHT22;57339;52.156;5.372;2023-12-20T07:16:45;8.60;90.30
69999;DHT22;57339;52.156;5.372;2023-12-20T07:19:12;8.60;90.30
69999;DHT22;57339;52.156;5.372;2023-12-20T07:21:39;8.60;90.30
69999;DHT22;57339;52.156;5.372;2023-12-20T07:24:06;8.60;90.20
69999;DHT22;57339;52.156;5.372;2023-12-20T07:26:34;8.60;90.20
69999;DHT22;57339;52.156;5.372;2023-12-20T07:29:01;8.60;90.30
69999;DHT22;57339;52.156;5.372;2023-12-20T07:31:28;8.70;90.30
69999;DHT22;57339;52.156;5.372;2023-12-20T07:33:58;8.70;90.10
69999;DHT22;57339;52.156;5.372;2023-12-20T07:36:28;8.70;90.10
69999;DHT22;57339;52.156;5.372;2023-12-20T07:38:55;8.70;90.10
69999;DHT22;57339;52.156;5.372;2023-12-20T07:41:21;8.70;90.20
69999;DHT22;57339;52.156;5.372;2023-12-20T07:43:48;8.70;90.00
69999;DHT22;57339;52.156;5.372;2023-12-20T07:46:15;8.70;90.10
69999;DHT22;57339;52.156;5.372;2023-12-20T07:48:42;8.70;90.20
69999;DHT22;57339;52.156;5.372;2023-12-20T07:51:12;8.70;90.10
69999;DHT22;57339;52.156;5.372;2023-12-20T07:53:39;8.70;90.10
69999;DHT22;57339;52.156;5.372;2023-12-20T07:56:16;8.70;89.90
69999;DHT22;57339;52.156;5.372;2023-12-20T07:58:43;8.80;90.00
69999;DHT22;57339;52.156;5.372;2023-12-20T08:01:19;8.80;90.00
69999;DHT22;57339;52.156;5.372;2023-12-20T08:03:46;8.80;89.90
69999;DHT22;57339;52.156;5.372;2023-12-20T08:06:13;8.80;90.10
69999;DHT22;57339;52.156;5.372;2023-12-20T08:08:40;8.80;90.10
69999;DHT22;57339;52.156;5.372;2023-12-20T08:11:09;8.80;90.00
69999;DHT22;57339;52.156;5.372;2023-12-20T08:13:36;8.80;90.10
69999;DHT22;57339;52.156;5.372;2023-12-20T08:16:03;8.80;90.10
69999;DHT22;57339;52.156;5.372;2023-12-20T08:18:32;8.90;90.00
69999;DHT22;57339;52.156;5.372;2023-12-20T08:20:59;8.90;90.00
69999;DHT22;57339;52.156;5.372;2023-12-20T08:23:29;8.90;90.00
69999;DHT22;57339;52.156;5.372;2023-12-20T08:26:00;8.90;89.60
69999;DHT22;57339;52.156;5.372;2023-12-20T08:28:29;8.90;89.70
69999;DHT22;57339;52.156;5.372;2023-12-20T08:30:57;8.90;89.70
69999;DHT22;57339;52.156;5.372;2023-12-20T08:33:24;8.90;89.90
69999;DHT22;57339;52.156;5.372;2023-12-20T08:35:51;8.90;89.70
69999;DHT22;57339;52.156;5.372;2023-12-20T08:38:18;8.90;89.80
69999;DHT22;57339;52.156;5.372;2023-12-20T08:40:45;9.00;89.80
69999;DHT22;57339;52.156;5.372;2023-12-20T08:43:12;9.00;89.80
69999;DHT22;57339;52.156;5.372;2023-12-20T08:45:39;9.00;89.80
69999;DHT22;57339;52.156;5.372;2023-12-20T08:48:06;9.00;90.40
69999;DHT22;57339;52.156;5.372;2023-12-20T08:50:35;9.00;89.90
69999;DHT22;57339;52.156;5.372;2023-12-20T08:53:03;9.00;90.30
69999;DHT22;57339;52.156;5.372;2023-12-20T08:55:30;9.00;90.10
69999;DHT22;57339;52.156;5.372;2023-12-20T08:57:58;9.00;90.10
69999;DHT22;57339;52.156;5.372;2023-12-20T09:00:25;8.90;90.30
69999;DHT22;57339;52.156;5.372;2023-12-20T09:02:52;8.90;90.30
69999;DHT22;57339;52.156;5.372;2023-12-20T09:05:19;8.90;90.50
69999;DHT22;57339;52.156;5.372;2023-12-20T09:07:46;8.90;90.60
69999;DHT22;57339;52.156;5.372;2023-12-20T09:10:13;9.00;90.70
69999;DHT22;57339;52.156;5.372;2023-12-20T09:12:42;8.90;90.80
69999;DHT22;57339;52.156;5.372;2023-12-20T09:15:09;9.00;90.90
69999;DHT22;57339;52.156;5.372;2023-12-20T09:17:36;8.90;90.90
69999;DHT22;57339;52.156;5.372;2023-12-20T09:20:04;8.90;91.10
69999;DHT22;57339;52.156;5.372;2023-12-20T09:22:31;8.90;91.20
69999;DHT22;57339;52.156;5.372;2023-12-20T09:24:58;8.90;91.40
69999;DHT22;57339;52.156;5.372;2023-12-20T09:27:25;8.90;91.30
69999;DHT22;57339;52.156;5.372;2023-12-20T09:29:52;8.90;91.30
69999;DHT22;57339;52.156;5.372;2023-12-20T09:32:19;8.90;91.10
69999;DHT22;57339;52.156;5.372;2023-12-20T09:34:47;9.00;91.20
69999;DHT22;57339;52.156;5.372;2023-12-20T09:37:14;9.00;91.10
69999;DHT22;57339;52.156;5.372;2023-12-20T09:39:41;9.00;91.10
69999;DHT22;57339;52.156;5.372;2023-12-20T09:42:11;9.10;90.90
69999;DHT22;57339;52.156;5.372;2023-12-20T09:44:38;9.10;90.80
69999;DHT22;57339;52.156;5.372;2023-12-20T09:47:06;9.10;90.60
69999;DHT22;57339;52.156;5.372;2023-12-20T09:49:34;9.10;90.60
69999;DHT22;57339;52.156;5.372;2023-12-20T09:52:05;9.20;90.60
69999;DHT22;57339;52.156;5.372;2023-12-20T09:54:33;9.20;90.40
69999;DHT22;57339;52.156;5.372;2023-12-20T09:57:00;9.20;90.30
69999;DHT22;57339;52.156;5.372;2023-12-20T09:59:28;9.30;90.40
69999;DHT22;57339;52.156;5.372;2023-12-20T10:01:56;9.30;90.10
69999;DHT22;57339;52.156;5.372;2023-12-20T10:04:24;9.40;90.20
69999;DHT22;57339;52.156;5.372;2023-12-20T10:07:01;9.40;90.20
69999;DHT22;57339;52.156;5.372;2023-12-20T10:09:32;9.40;90.20
69999;DHT22;57339;52.156;5.372;2023-12-20T10:11:59;9.40;90.20
69999;DHT22;57339;52.156;5.372;2023-12-20T10:14:26;9.40;90.00
69999;DHT22;57339;52.156;5.372;2023-12-20T10:16:52;9.40;89.50
69999;DHT22;57339;52.156;5.372;2023-12-20T10:19:20;9.50;89.30
69999;DHT22;57339;52.156;5.372;2023-12-20T10:21:47;9.50;89.60
69999;DHT22;57339;52.156;5.372;2023-12-20T10:24:17;9.50;89.10
69999;DHT22;57339;52.156;5.372;2023-12-20T10:26:44;9.50;89.30
69999;DHT22;57339;52.156;5.372;2023-12-20T10:29:11;9.60;89.00
69999;DHT22;57339;52.156;5.372;2023-12-20T10:31:38;9.50;89.10
69999;DHT22;57339;52.156;5.372;2023-12-20T10:34:05;9.60;89.20
69999;DHT22;57339;52.156;5.372;2023-12-20T10:36:33;9.60;89.00
69999;DHT22;57339;52.156;5.372;2023-12-20T10:39:00;9.70;88.50
69999;DHT22;57339;52.156;5.372;2023-12-20T10:41:34;9.60;88.60
69999;DHT22;57339;52.156;5.372;2023-12-20T10:44:05;9.70;88.20
69999;DHT22;57339;52.156;5.372;2023-12-20T10:46:33;9.70;88.40
69999;DHT22;57339;52.156;5.372;2023-12-20T10:49:05;9.70;87.90
69999;DHT22;57339;52.156;5.372;2023-12-20T10:51:34;9.70;87.90
69999;DHT22;57339;52.156;5.372;2023-12-20T10:54:01;9.70;87.70
69999;DHT22;57339;52.156;5.372;2023-12-20T10:56:32;9.70;87.20
69999;DHT22;57339;52.156;5.372;2023-12-20T10:59:04;9.70;87.20
69999;DHT22;57339;52.156;5.372;2023-12-20T11:01:32;9.70;86.70
69999;DHT22;57339;52.156;5.372;2023-12-20T11:04:06;9.80;87.20
69999;DHT22;57339;52.156;5.372;2023-12-20T11:17:06;9.90;86.60
69999;DHT22;57339;52.156;5.372;2023-12-20T11:19:36;9.90;86.50
69999;DHT22;57339;52.156;5.372;2023-12-20T11:22:04;10.00;87.00
69999;DHT22;57339;52.156;5.372;2023-12-20T11:24:35;10.00;86.80
69999;DHT22;57339;52.156;5.372;2023-12-20T11:27:02;10.00;86.00
69999;DHT22;57339;52.156;5.372;2023-12-20T11:29:37;10.00;86.20
69999;DHT22;57339;52.156;5.372;2023-12-20T11:37:40;10.10;86.40
69999;DHT22;57339;52.156;5.372;2023-12-20T11:40:12;10.10;85.60
69999;DHT22;57339;52.156;5.372;2023-12-20T11:42:40;10.20;86.10
69999;DHT22;57339;52.156;5.372;2023-12-20T11:45:13;10.20;85.90
69999;DHT22;57339;52.156;5.372;2023-12-20T11:47:43;10.20;86.30
69999;DHT22;57339;52.156;5.372;2023-12-20T11:50:11;10.20;85.10
69999;DHT22;57339;52.156;5.372;2023-12-20T11:52:38;10.30;85.10
69999;DHT22;57339;52.156;5.372;2023-12-20T11:55:06;10.30;85.30
69999;DHT22;57339;52.156;5.372;2023-12-20T11:57:33;10.30;84.00
69999;DHT22;57339;52.156;5.372;2023-12-20T12:00:00;10.30;84.90
69999;DHT22;57339;52.156;5.372;2023-12-20T12:02:30;10.20;83.80
69999;DHT22;57339;52.156;5.372;2023-12-20T12:04:59;10.30;84.50
69999;DHT22;57339;52.156;5.372;2023-12-20T12:07:26;10.30;84.40
69999;DHT22;57339;52.156;5.372;2023-12-20T12:09:54;10.30;83.40
69999;DHT22;57339;52.156;5.372;2023-12-20T12:12:21;10.30;83.50
69999;DHT22;57339;52.156;5.372;2023-12-20T12:14:49;10.30;84.30
69999;DHT22;57339;52.156;5.372;2023-12-20T12:17:16;10.30;84.30
69999;DHT22;57339;52.156;5.372;2023-12-20T12:19:43;10.30;84.20
69999;DHT22;57339;52.156;5.372;2023-12-20T12:22:14;10.30;84.00
69999;DHT22;57339;52.156;5.372;2023-12-20T12:24:48;10.30;84.00
69999;DHT22;57339;52.156;5.372;2023-12-20T12:27:16;10.30;83.80
69999;DHT22;57339;52.156;5.372;2023-12-20T12:30:00;10.30;84.50
69999;DHT22;57339;52.156;5.372;2023-12-20T12:32:28;10.30;84.40
69999;DHT22;57339;52.156;5.372;2023-12-20T12:34:56;10.40;84.60
69999;DHT22;57339;52.156;5.372;2023-12-20T12:37:23;10.30;84.50
69999;DHT22;57339;52.156;5.372;2023-12-20T12:39:49;10.40;84.60
69999;DHT22;57339;52.156;5.372;2023-12-20T12:42:16;10.40;84.60
69999;DHT22;57339;52.156;5.372;2023-12-20T12:44:43;10.30;84.30
69999;DHT22;57339;52.156;5.372;2023-12-20T12:47:10;10.30;84.50
69999;DHT22;57339;52.156;5.372;2023-12-20T12:49:37;10.40;84.90
69999;DHT22;57339;52.156;5.372;2023-12-20T12:52:04;10.50;84.90
69999;DHT22;57339;52.156;5.372;2023-12-20T12:54:31;10.40;85.00
69999;DHT22;57339;52.156;5.372;2023-12-20T12:56:59;10.40;85.10
69999;DHT22;57339;52.156;5.372;2023-12-20T12:59:26;10.30;84.60
69999;DHT22;57339;52.156;5.372;2023-12-20T13:01:52;10.30;84.80
69999;DHT22;57339;52.156;5.372;2023-12-20T13:04:20;10.40;85.00
69999;DHT22;57339;52.156;5.372;2023-12-20T13:06:47;10.40;85.10
69999;DHT22;57339;52.156;5.372;2023-12-20T13:09:14;10.40;84.80
69999;DHT22;57339;52.156;5.372;2023-12-20T13:11:41;10.30;84.60
69999;DHT22;57339;52.156;5.372;2023-12-20T13:14:08;10.30;84.70
69999;DHT22;57339;52.156;5.372;2023-12-20T13:16:34;10.40;85.10
69999;DHT22;57339;52.156;5.372;2023-12-20T13:19:02;10.30;84.50
69999;DHT22;57339;52.156;5.372;2023-12-20T13:21:30;10.30;85.00
69999;DHT22;57339;52.156;5.372;2023-12-20T13:23:57;10.30;84.70
69999;DHT22;57339;52.156;5.372;2023-12-20T13:26:24;10.30;84.50
69999;DHT22;57339;52.156;5.372;2023-12-20T13:28:51;10.30;84.80
69999;DHT22;57339;52.156;5.372;2023-12-20T13:31:19;10.20;84.70
69999;DHT22;57339;52.156;5.372;2023-12-20T13:33:46;10.20;85.10
69999;DHT22;57339;52.156;5.372;2023-12-20T13:36:13;10.30;85.20
69999;DHT22;57339;52.156;5.372;2023-12-20T13:38:40;10.30;85.10
69999;DHT22;57339;52.156;5.372;2023-12-20T13:41:07;10.30;85.00
69999;DHT22;57339;52.156;5.372;2023-12-20T13:45:05;10.20;83.70
69999;DHT22;57339;52.156;5.372;2023-12-20T13:47:35;10.20;84.80
69999;DHT22;57339;52.156;5.372;2023-12-20T13:50:03;10.30;85.20
69999;DHT22;57339;52.156;5.372;2023-12-20T13:52:30;10.30;85.10
69999;DHT22;57339;52.156;5.372;2023-12-20T13:54:59;10.30;85.10
69999;DHT22;57339;52.156;5.372;2023-12-20T13:57:26;10.30;84.70
69999;DHT22;57339;52.156;5.372;2023-12-20T14:00:13;10.30;84.50
69999;DHT22;57339;52.156;5.372;2023-12-20T14:02:41;10.30;84.60
69999;DHT22;57339;52.156;5.372;2023-12-20T14:05:09;10.30;84.50
69999;DHT22;57339;52.156;5.372;2023-12-20T14:07:36;10.20;84.10
69999;DHT22;57339;52.156;5.372;2023-12-20T14:10:04;10.30;84.30
69999;DHT22;57339;52.156;5.372;2023-12-20T14:12:31;10.20;84.10
69999;DHT22;57339;52.156;5.372;2023-12-20T14:15:01;10.20;84.30
69999;DHT22;57339;52.156;5.372;2023-12-20T14:17:30;10.20;84.40
69999;DHT22;57339;52.156;5.372;2023-12-20T14:19:57;10.20;84.50
69999;DHT22;57339;52.156;5.372;2023-12-20T14:22:24;10.30;84.50
69999;DHT22;57339;52.156;5.372;2023-12-20T14:24:51;10.30;84.50
69999;DHT22;57339;52.156;5.372;2023-12-20T14:27:18;10.30;84.50
69999;DHT22;57339;52.156;5.372;2023-12-20T14:29:45;10.30;84.50
69999;DHT22;57339;52.156;5.372;2023-12-20T14:32:12;10.30;84.40
69999;DHT22;57339;52.156;5.372;2023-12-20T14:34:39;10.30;84.40
69999;DHT22;57339;52.156;5.372;2023-12-20T14:37:06;10.30;84.50
69999;DHT22;57339;52.156;5.372;2023-12-20T14:39:36;10.30;84.50
69999;DHT22;57339;52.156;5.372;2023-12-20T14:42:06;10.30;84.50
69999;DHT22;57339;52.156;5.372;2023-12-20T14:44:33;10.30;84.50
69999;DHT22;57339;52.156;5.372;2023-12-20T14:47:00;10.30;84.80
69999;DHT22;57339;52.156;5.372;2023-12-20T14:49:27;10.30;84.70
69999;DHT22;57339;52.156;5.372;2023-12-20T14:51:54;10.30;84.70
69999;DHT22;57339;52.156;5.372;2023-12-20T14:54:21;10.30;84.80
69999;DHT22;57339;52.156;5.372;2023-12-20T14:56:48;10.30;84.90
69999;DHT22;57339;52.156;5.372;2023-12-20T14:59:15;10.30;84.90
69999;DHT22;57339;52.156;5.372;2023-12-20T15:01:43;10.30;85.90
69999;DHT22;57339;52.156;5.372;2023-12-20T15:04:11;10.30;85.20
69999;DHT22;57339;52.156;5.372;2023-12-20T15:06:40;10.30;85.20
69999;DHT22;57339;52.156;5.372;2023-12-20T15:09:07;10.30;85.20
69999;DHT22;57339;52.156;5.372;2023-12-20T15:11:34;10.30;85.30
69999;DHT22;57339;52.156;5.372;2023-12-20T15:14:01;10.30;85.40
69999;DHT22;57339;52.156;5.372;2023-12-20T15:16:32;10.30;85.40
69999;DHT22;57339;52.156;5.372;2023-12-20T15:19:01;10.30;85.60
69999;DHT22;57339;52.156;5.372;2023-12-20T15:21:32;10.20;85.70
69999;DHT22;57339;52.156;5.372;2023-12-20T15:24:01;10.20;85.90
69999;DHT22;57339;52.156;5.372;2023-12-20T15:26:38;10.20;85.90
69999;DHT22;57339;52.156;5.372;2023-12-20T15:29:05;10.20;86.10
69999;DHT22;57339;52.156;5.372;2023-12-20T15:31:32;10.20;86.30
69999;DHT22;57339;52.156;5.372;2023-12-20T15:34:02;10.20;86.50
69999;DHT22;57339;52.156;5.372;2023-12-20T15:36:31;10.10;86.80
69999;DHT22;57339;52.156;5.372;2023-12-20T15:39:02;10.10;87.00
69999;DHT22;57339;52.156;5.372;2023-12-20T15:41:29;10.20;87.20
69999;DHT22;57339;52.156;5.372;2023-12-20T15:43:57;10.10;87.20
69999;DHT22;57339;52.156;5.372;2023-12-20T15:46:24;10.20;87.50
69999;DHT22;57339;52.156;5.372;2023-12-20T15:48:51;10.10;87.50
69999;DHT22;57339;52.156;5.372;2023-12-20T15:51:20;10.10;87.80
69999;DHT22;57339;52.156;5.372;2023-12-20T15:53:47;10.10;87.90
69999;DHT22;57339;52.156;5.372;2023-12-20T15:56:15;10.10;88.20
69999;DHT22;57339;52.156;5.372;2023-12-20T15:58:43;10.10;88.40
69999;DHT22;57339;52.156;5.372;2023-12-20T16:01:10;10.00;88.70
69999;DHT22;57339;52.156;5.372;2023-12-20T16:03:37;10.00;88.90